Flight Track Log - Related Links

Times and Time Zones

All times are in EDT time to prevent confusion due to time zone crossing. See the N53NW flight status page for this flight to view local times or setup timezone preferences in your user account.

Time Position Orientation Groundspeed Altitude Reporting Facility
EDT Latitude Longitude Course Direction KTS MPH feet Rate Location/Type
Mon 01:29:37 PM 28.4167 -81.3333 192° South 173 199 500  Level Orlando TRACON
Mon 01:30:43 PM 28.3500 -81.3500 192° South 233 268 3,200 2,714 Climbing Orlando TRACON
Mon 01:31:43 PM 28.3333 -81.4000 249° West 233 268 6,200 2,926 Climbing Orlando TRACON
Mon 01:32:44 PM 28.3167 -81.4833 257° West 241 277 9,100 2,740 Climbing Orlando TRACON
Mon 01:33:50 PM 28.3167 -81.5667 270° West 251 289 12,000 813 Climbing Orlando TRACON
Mon 01:36:18 PM 28.3333 -81.7833 275° West 291 335 12,000  Level Tampa TRACON
Mon 01:37:24 PM 28.3333 -81.8833 270° West 285 328 12,000  Level Tampa TRACON
Mon 01:38:12 PM 28.3500 -81.9667 283° West 284 327 12,000  Level Tampa TRACON
Mon 01:39:12 PM 28.3500 -82.0500 270° West 285 328 12,000 -750 Level Tampa TRACON
Mon 01:40:12 PM 28.3500 -82.1333 270° West 287 330 10,500 -1,000 Descending Tampa TRACON
Mon 01:41:12 PM 28.3667 -82.2333 281° West 274 315 10,000 -263 Descending Tampa TRACON
Mon 01:42:06 PM 28.3500 -82.3000 254° West 279 321 10,000  Level Tampa TRACON
Mon 01:43:24 PM 28.3500 -82.4167 270° West 279 321 10,000  Level Tampa TRACON
Mon 01:44:12 PM 28.3500 -82.4833 270° West 278 320 10,000 -56 Level Tampa TRACON
Mon 01:45:12 PM 28.3500 -82.5833 270° West 275 316 9,900 -939 Descending Tampa TRACON
Mon 01:46:07 PM 28.3333 -82.6500 254° West 258 297 8,200 -1,370 Descending Tampa TRACON
Mon 01:47:19 PM 28.3333 -82.7500 270° West 252 290 7,000 -571 Descending Tampa TRACON
Mon 01:48:13 PM 28.3000 -82.8000 233° Southwest 257 296 7,000  Level Tampa TRACON
Mon 01:49:13 PM 28.2333 -82.8167 192° South 257 296 7,000 -850 Level Tampa TRACON
Mon 01:50:13 PM 28.1667 -82.8333 192° South 256 295 5,300 -1,500 Descending Tampa TRACON
Mon 01:51:13 PM 28.0833 -82.8167 170° South 262 302 4,000 -650 Descending Tampa TRACON
Mon 01:52:13 PM 28.0167 -82.8167 180° South 247 284 4,000 -300 Level Tampa TRACON
Mon 01:53:13 PM 27.9500 -82.8000 168° South 241 277 3,400 -700 Descending Tampa TRACON
Mon 01:54:13 PM 27.8833 -82.7833 168° South 240 276 2,600 -700 Descending Tampa TRACON
Mon 01:55:13 PM 27.8333 -82.7500 149° Southeast 217 250 2,000 -500 Descending Tampa TRACON
Mon 01:56:13 PM 27.8333 -82.7000 90° East 170 196 1,600 -579 Descending Tampa TRACON
Mon 01:57:07 PM 27.8500 -82.6833 41° Northeast 128 147 900 -778 Descending Tampa TRACON

Login

Don't have an account? Register now (free) for customized features, flight alerts, and more!